Time;durP1;ratioP1;P1;durP2;ratioP2;P2;SDS_P1;SDS_P2;PMS_P1;PMS_P2;Temp;Humidity;BMP_temperature;BMP_pressure;BME280_temperature;BME280_humidity;BME280_pressure;Samples;Min_cycle;Max_cycle;Signal;HPM_P1;HPM_P2
2022/03/17 00:01:53;;;;;;;78.68;35.58;;;;;;;3.54;100.00;100232.44;4354657;32;20078;-74
2022/03/17 00:04:21;;;;;;;76.62;34.35;;;;;;;3.57;100.00;100232.03;4342674;32;20174;-74
2022/03/17 00:06:48;;;;;;;80.32;31.67;;;;;;;3.00;100.00;100139.16;4342422;33;20052;-74
2022/03/17 00:09:15;;;;;;;82.97;37.15;;;;;;;3.45;100.00;100230.81;4355756;32;20058;-75
2022/03/17 00:11:42;;;;;;;81.72;40.65;;;;;;;3.17;100.00;100187.81;4356295;32;20047;-74
2022/03/17 00:14:08;;;;;;;75.20;34.88;;;;;;;3.43;100.00;100246.09;4360913;32;20048;-74
2022/03/17 00:16:35;;;;;;;73.50;36.70;;;;;;;3.14;100.00;100199.63;4339085;33;20028;-74
2022/03/17 00:19:07;;;;;;;84.62;36.30;;;;;;;3.36;100.00;100258.47;4342363;32;20089;-74
2022/03/17 00:21:38;;;;;;;79.55;35.92;;;;;;;3.26;100.00;100240.84;4357250;32;20452;-74
2022/03/17 00:24:09;;;;;;;77.35;36.45;;;;;;;2.99;100.00;100198.72;4356807;32;20048;-74
2022/03/17 00:26:36;;;;;;;74.47;35.35;;;;;;;3.28;100.00;100246.81;4337605;32;20069;-74
2022/03/17 00:29:05;;;;;;;83.70;36.80;;;;;;;3.28;100.00;100260.13;4340615;32;20024;-74
2022/03/17 00:31:32;;;;;;;71.00;33.08;;;;;;;3.15;100.00;100246.56;4349274;32;20040;-75
2022/03/17 00:33:58;;;;;;;82.32;36.90;;;;;;;2.89;100.00;100206.91;4352066;32;20074;-74
2022/03/17 00:36:24;;;;;;;72.78;35.70;;;;;;;3.22;100.00;100267.97;4354540;32;20062;-74
2022/03/17 00:38:51;;;;;;;80.95;36.55;;;;;;;3.13;100.00;100256.53;4365267;32;20101;-74
2022/03/17 00:41:17;;;;;;;76.43;34.65;;;;;;;2.84;100.00;100215.38;4347611;32;20069;-74
2022/03/17 00:43:43;;;;;;;70.15;35.38;;;;;;;2.70;100.00;100198.28;4354648;32;20069;-75
2022/03/17 00:46:10;;;;;;;81.07;37.40;;;;;;;2.98;100.00;100250.25;4354962;32;20107;-72
2022/03/17 00:48:36;;;;;;;74.43;38.22;;;;;;;2.94;100.00;100257.75;4356886;32;20085;-73
2022/03/17 00:51:03;;;;;;;68.05;31.60;;;;;;;2.60;100.00;100202.97;4354960;32;20094;-72
2022/03/17 00:53:29;;;;;;;;;;;;;;;3.01;100.00;100257.91;4343569;32;19939;-73
2022/03/17 00:55:55;;;;;;;;;;;;;;;3.00;100.00;100251.75;4354495;32;19962;-73
2022/03/17 00:58:22;;;;;;;;;;;;;;;2.84;100.00;100252.62;4343191;32;19954;-72
2022/03/17 01:00:49;;;;;;;;;;;;;;;2.88;100.00;100247.78;4342606;32;20284;-72
2022/03/17 01:03:15;;;;;;;;;;;;;;;2.90;100.00;100257.28;4355953;32;19942;-72
2022/03/17 01:05:41;;;;;;;;;;;;;;;2.86;100.00;100255.94;4354965;32;20003;-72
2022/03/17 01:08:08;;;;;;;;;;;;;;;2.80;100.00;100261.09;4355582;32;19938;-72
2022/03/17 01:10:35;;;;;;;;;;;;;;;2.86;100.00;100255.94;4356058;32;19936;-72
2022/03/17 01:13:03;;;;;;;;;;;;;;;2.81;100.00;100258.28;4356322;32;19957;-72
2022/03/17 01:15:30;;;;;;;;;;;;;;;2.79;100.00;100260.25;4356422;32;20254;-72
2022/03/17 01:17:56;;;;;;;;;;;;;;;2.70;100.00;100250.66;4357074;32;19943;-72
2022/03/17 01:20:22;;;;;;;;;;;;;;;2.69;100.00;100254.31;4353238;32;19949;-75
2022/03/17 01:22:49;;;;;;;;;;;;;;;2.70;100.00;100261.28;4357072;32;20334;-72
2022/03/17 01:25:15;;;;;;;;;;;;;;;2.64;100.00;100261.97;4356001;32;19961;-72
2022/03/17 01:27:41;;;;;;;;;;;;;;;2.68;100.00;100263.28;4336211;32;19939;-72
2022/03/17 01:30:09;;;;;;;;;;;;;;;2.65;100.00;100263.59;4339235;32;19939;-73
2022/03/17 01:32:37;;;;;;;;;;;;;;;2.61;100.00;100273.75;4336009;32;19958;-72
2022/03/17 01:35:05;;;;;;;;;;;;;;;2.61;100.00;100267.59;4343283;32;20226;-73
2022/03/17 01:37:31;;;;;;;;;;;;;;;2.66;100.00;100275.91;4369034;32;19973;-72
2022/03/17 01:39:57;;;;;;;;;;;;;;;2.65;100.00;100271.56;4367608;32;19945;-73
2022/03/17 01:42:23;;;;;;;;;;;;;;;2.51;100.00;100265.94;4352475;32;19947;-73
2022/03/17 01:44:50;;;;;;;;;;;;;;;2.45;100.00;100279.91;4337863;33;19950;-73
2022/03/17 01:47:29;;;;;;;;;;;;;;;2.40;100.00;100268.94;4354598;32;19948;-72
2022/03/17 01:49:56;;;;;;;;;;;;;;;2.43;100.00;100271.28;4370241;32;19935;-73
2022/03/17 01:52:30;;;;;;;;;;;;;;;2.41;100.00;100278.59;4354633;32;19993;-72
2022/03/17 01:54:56;;;;;;;;;;;;;;;2.34;100.00;100275.75;4357266;32;20347;-73
2022/03/17 01:57:22;;;;;;;;;;;;;;;2.25;100.00;100278.56;4354779;32;20292;-72
2022/03/17 01:59:49;;;;;;;;;;;;;;;2.29;100.00;100270.09;4370504;32;19939;-73
2022/03/17 02:02:16;;;;;;;;;;;;;;;2.24;100.00;100277.75;4357634;32;19939;-73
2022/03/17 02:04:42;;;;;;;;;;;;;;;2.22;100.00;100279.75;4340685;33;20366;-72
2022/03/17 02:07:09;;;;;;;;;;;;;;;2.17;100.00;100277.56;4350616;32;19957;-73
2022/03/17 02:09:36;;;;;;;;;;;;;;;2.14;100.00;100280.56;4354251;32;19939;-72
2022/03/17 02:14:48;;;;;;;;;;;;;;;2.09;100.00;100282.88;4355793;32;19968;-73
2022/03/17 02:17:15;;;;;;;;;;;;;;;2.07;100.00;100286.69;4355389;32;19938;-73
2022/03/17 02:19:41;;;;;;;;;;;;;;;2.12;100.00;100289.66;4355060;32;20382;-73
2022/03/17 02:22:10;;;;;;;;;;;;;;;2.12;100.00;100295.00;4353208;32;19935;-72
2022/03/17 02:27:21;;;;;;;;;;;;;;;2.03;100.00;100302.13;4365504;32;19978;-72
2022/03/17 02:29:48;;;;;;;;;;;;;;;1.75;100.00;100257.22;4337762;33;19939;-73
2022/03/17 02:32:15;;;;;;;;;;;;;;;2.05;100.00;100305.44;4337806;33;19943;-73
2022/03/17 02:34:44;;;;;;;;;;;;;;;1.92;100.00;100305.91;4337652;33;19988;-73
2022/03/17 02:37:12;;;;;;;;;;;;;;;1.89;100.00;100310.72;4341368;32;19943;-73
2022/03/17 02:39:38;;;;;;;;;;;;;;;1.90;100.00;100309.72;4350524;32;19952;-72
2022/03/17 02:42:05;;;;;;;;;;;;;;;1.90;100.00;100323.84;4340628;33;20252;-73
2022/03/17 02:44:32;;;;;;;;;;;;;;;1.87;100.00;100328.63;4351592;33;19938;-72
2022/03/17 02:46:58;;;;;;;;;;;;;;;1.87;100.00;100333.94;4341701;33;20305;-72
2022/03/17 02:49:26;;;;;;;;;;;;;;;1.85;100.00;100335.94;4355622;33;19939;-72
2022/03/17 02:51:53;;;;;;;;;;;;;;;1.79;100.00;100346.22;4354227;33;19935;-73
2022/03/17 02:54:19;;;;;;;;;;;;;;;1.77;100.00;100337.59;4351872;33;19956;-73
2022/03/17 02:56:46;;;;;;;;;;;;;;;1.74;100.00;100345.87;4341117;33;19947;-73
2022/03/17 02:59:12;;;;;;;;;;;;;;;1.72;100.00;100347.81;4354911;33;19953;-72
2022/03/17 03:01:39;;;;;;;68.12;28.25;;;;;;;1.69;100.00;100345.53;4352197;33;20376;-72
2022/03/17 03:04:06;;;;;;;84.62;34.58;;;;;;;1.64;100.00;100350.44;4338656;33;20073;-73
2022/03/17 03:06:33;;;;;;;75.25;35.10;;;;;;;1.58;100.00;100351.09;4353273;32;20179;-73
2022/03/17 03:08:59;;;;;;;77.93;34.38;;;;;;;1.63;100.00;100343.50;4363493;32;20306;-72
2022/03/17 03:11:25;;;;;;;77.05;33.42;;;;;;;1.61;100.00;100335.69;4370581;32;20354;-72
2022/03/17 03:13:52;;;;;;;76.37;37.00;;;;;;;1.57;100.00;100339.63;4359442;32;20072;-72
2022/03/17 03:16:18;;;;;;;63.65;29.80;;;;;;;1.41;100.00;100311.19;4344022;32;20054;-73
2022/03/17 03:18:45;;;;;;;81.28;35.65;;;;;;;1.34;100.00;100296.91;4343352;32;20051;-73
2022/03/17 03:21:12;;;;;;;82.10;37.25;;;;;;;1.48;100.00;100334.47;4343951;32;20098;-72
2022/03/17 03:23:38;;;;;;;75.22;33.80;;;;;;;1.49;100.00;100338.78;4357762;32;20035;-73
2022/03/17 03:26:04;;;;;;;77.37;38.38;;;;;;;1.50;100.00;100343.09;4356148;32;20044;-73
2022/03/17 03:28:31;;;;;;;80.93;36.25;;;;;;;1.38;100.00;100338.06;4349825;32;20394;-73
2022/03/17 03:30:57;;;;;;;80.18;35.35;;;;;;;1.23;100.00;100321.06;4356267;32;20032;-72
2022/03/17 03:33:30;;;;;;;86.25;35.85;;;;;;;1.42;100.00;100355.34;4364845;32;20039;-72
2022/03/17 03:38:50;;;;;;;77.45;35.88;;;;;;;1.42;100.00;100358.00;4372816;32;20056;-72
2022/03/17 03:41:17;;;;;;;74.90;38.78;;;;;;;1.37;100.00;100370.91;4365676;32;20035;-72
2022/03/17 03:43:43;;;;;;;73.53;36.50;;;;;;;1.33;100.00;100369.53;4357401;32;20094;-72
2022/03/17 03:46:10;;;;;;;77.30;37.22;;;;;;;1.07;100.00;100327.94;4356830;32;20184;-74
2022/03/17 03:48:38;;;;;;;90.35;35.85;;;;;;;1.27;100.00;100354.25;4356751;32;20035;-74
2022/03/17 03:51:04;;;;;;;83.93;37.35;;;;;;;1.30;100.00;100347.81;4357158;32;20425;-74
2022/03/17 03:54:13;;;;;;;81.97;33.50;;;;;;;1.23;100.00;100356.38;4357250;32;20112;-73
2022/03/17 03:56:17;;;;;;;74.68;34.40;;;;;;;1.32;100.00;100361.75;4355065;32;20511;-73
2022/03/17 03:58:44;;;;;;;92.70;36.15;;;;;;;1.02;100.00;100324.91;4357725;32;20393;-74
2022/03/17 04:01:10;;;;;;;75.40;34.25;;;;;;;0.96;100.00;100320.22;4356265;32;20047;-72
2022/03/17 04:03:37;;;;;;;80.07;35.47;;;;;;;0.94;100.00;100316.88;4342553;33;20035;-74
2022/03/17 04:06:03;;;;;;;82.35;35.80;;;;;;;1.26;100.00;100389.72;4343680;32;20040;-74
2022/03/17 04:08:29;;;;;;;66.85;30.60;;;;;;;0.89;100.00;100335.09;4355193;32;20040;-74
2022/03/17 04:10:56;;;;;;;76.35;34.85;;;;;;;0.99;100.00;100362.37;4357076;32;20077;-74
2022/03/17 04:13:22;;;;;;;76.60;35.75;;;;;;;1.17;100.00;100382.72;4357145;32;20430;-74
2022/03/17 04:15:48;;;;;;;80.87;37.22;;;;;;;1.13;100.00;100387.47;4356385;32;20036;-74
2022/03/17 04:18:15;;;;;;;71.12;33.65;;;;;;;1.11;100.00;100385.97;4356234;32;20044;-72
2022/03/17 04:20:44;;;;;;;83.68;36.38;;;;;;;0.83;100.00;100339.22;4355086;32;20072;-74
2022/03/17 04:23:11;;;;;;;89.40;39.67;;;;;;;1.07;100.00;100380.97;4356472;32;20051;-73
2022/03/17 04:25:37;;;;;;;81.28;36.65;;;;;;;1.05;100.00;100393.56;4356910;32;20434;-71
2022/03/17 04:28:05;;;;;;;77.00;35.50;;;;;;;1.07;100.00;100391.59;4357709;32;20052;-72
2022/03/17 04:30:33;;;;;;;74.53;37.17;;;;;;;1.09;100.00;100397.56;4355165;32;20461;-73
2022/03/17 04:33:00;;;;;;;91.75;36.45;;;;;;;0.99;100.00;100396.84;4342464;33;20384;-73
2022/03/17 04:35:26;;;;;;;84.25;35.05;;;;;;;0.97;100.00;100406.75;4357033;32;20062;-72
2022/03/17 04:37:52;;;;;;;80.18;35.58;;;;;;;0.90;100.00;100395.09;4356612;32;20028;-73
2022/03/17 04:40:19;;;;;;;83.57;35.25;;;;;;;0.99;100.00;100410.09;4343505;32;20039;-73
2022/03/17 04:42:45;;;;;;;79.82;37.83;;;;;;;0.93;100.00;100400.09;4352453;32;20392;-73
2022/03/17 04:45:11;;;;;;;81.82;39.30;;;;;;;0.92;100.00;100409.03;4356621;32;20079;-73
2022/03/17 04:47:38;;;;;;;84.22;39.70;;;;;;;0.64;100.00;100374.69;4357338;32;20401;-73
2022/03/17 04:50:11;;;;;;;77.10;37.65;;;;;;;0.82;100.00;100418.91;4356779;32;20210;-72
2022/03/17 04:55:23;;;;;;;79.93;37.40;;;;;;;0.76;100.00;100422.16;4356701;32;20174;-73
2022/03/17 04:57:51;;;;;;;88.25;39.60;;;;;;;0.76;100.00;100419.50;4356482;32;20039;-73
2022/03/17 05:00:17;;;;;;;82.00;34.13;;;;;;;0.68;100.00;100418.44;4356087;32;20043;-74
2022/03/17 05:02:44;;;;;;;79.70;37.17;;;;;;;0.43;100.00;100372.34;4354344;32;20441;-73
2022/03/17 05:05:11;;;;;;;76.87;30.98;;;;;;;0.69;100.00;100425.41;4362879;32;20083;-72
2022/03/17 05:07:37;;;;;;;81.55;32.90;;;;;;;0.72;100.00;100425.12;4367552;32;20031;-73
2022/03/17 05:10:04;;;;;;;81.12;36.45;;;;;;;0.72;100.00;100435.72;4352379;32;20058;-73
2022/03/17 05:12:30;;;;;;;87.68;37.40;;;;;;;0.69;100.00;100425.41;4360908;32;20035;-73
2022/03/17 05:14:57;;;;;;;75.25;35.20;;;;;;;0.68;100.00;100422.91;4338320;33;20029;-72
2022/03/17 05:17:23;;;;;;;77.68;36.88;;;;;;;0.70;100.00;100426.25;4354123;32;20318;-72
2022/03/17 05:19:50;;;;;;;87.30;38.05;;;;;;;0.27;100.00;100362.41;4356056;32;20039;-72
2022/03/17 05:22:16;;;;;;;75.18;36.97;;;;;;;0.65;100.00;100424.03;4350608;32;20362;-74
2022/03/17 05:24:42;;;;;;;70.30;33.58;;;;;;;0.40;100.00;100377.06;4356263;32;20044;-74
2022/03/17 05:27:09;;;;;;;82.37;39.22;;;;;;;0.75;100.00;100433.75;4350708;32;20032;-73
2022/03/17 05:29:35;;;;;;;86.37;39.47;;;;;;;0.70;100.00;100432.41;4351959;32;20424;-73
2022/03/17 05:32:02;;;;;;;80.80;36.70;;;;;;;0.44;100.00;100399.66;4353964;32;20055;-73
2022/03/17 05:34:28;;;;;;;77.85;36.72;;;;;;;0.78;100.00;100433.44;4362388;32;20421;-73
2022/03/17 05:36:55;;;;;;;88.40;34.90;;;;;;;0.73;100.00;100439.19;4367400;32;20065;-73
2022/03/17 05:39:21;;;;;;;74.12;34.42;;;;;;;0.83;100.00;100436.47;4369341;32;20083;-73
2022/03/17 05:41:48;;;;;;;84.20;37.78;;;;;;;0.81;100.00;100433.13;4370142;32;20067;-74
2022/03/17 05:44:14;;;;;;;80.20;36.47;;;;;;;0.83;100.00;100447.06;4359471;32;20062;-73
2022/03/17 05:46:41;;;;;;;79.60;37.35;;;;;;;0.93;100.00;100453.16;4346973;32;20040;-73
2022/03/17 05:49:07;;;;;;;72.57;32.78;;;;;;;0.72;100.00;100419.81;4354525;32;20083;-73
2022/03/17 05:51:34;;;;;;;75.60;33.42;;;;;;;0.93;100.00;100453.16;4366492;32;20411;-73
2022/03/17 05:54:00;;;;;;;83.15;38.15;;;;;;;1.00;100.00;100450.72;4359531;32;20062;-74
2022/03/17 05:56:27;;;;;;;71.80;36.38;;;;;;;1.00;100.00;100451.53;4358967;32;20040;-74
2022/03/17 05:58:53;;;;;;;69.28;31.00;;;;;;;1.09;100.00;100445.31;4356053;32;20065;-74
2022/03/17 06:01:21;;;;;;;83.85;35.95;;;;;;;1.15;100.00;100448.34;4353844;32;20069;-75
2022/03/17 06:03:47;;;;;;;83.45;32.67;;;;;;;1.16;100.00;100452.66;4346427;32;20060;-73
2022/03/17 06:06:14;;;;;;;77.50;34.75;;;;;;;1.21;100.00;100458.34;4357934;32;20070;-74
2022/03/17 06:08:40;;;;;;;87.10;37.65;;;;;;;1.22;100.00;100457.37;4359546;32;20062;-74
2022/03/17 06:11:07;;;;;;;73.28;29.33;;;;;;;1.26;100.00;100453.41;4347672;32;20444;-73
2022/03/17 06:13:33;;;;;;;72.10;32.55;;;;;;;1.00;100.00;100409.09;4356574;32;20469;-74
2022/03/17 06:16:00;;;;;;;84.18;38.17;;;;;;;1.06;100.00;100421.75;4348213;32;20484;-74
2022/03/17 06:18:26;;;;;;;77.70;33.55;;;;;;;1.03;100.00;100410.63;4358686;32;20035;-74
2022/03/17 06:20:52;;;;;;;81.37;35.97;;;;;;;1.35;100.00;100451.66;4355821;32;20467;-73
2022/03/17 06:23:19;;;;;;;84.03;38.85;;;;;;;1.47;100.00;100465.50;4345496;32;20040;-74
2022/03/17 06:25:46;;;;;;;76.25;33.08;;;;;;;1.25;100.00;100419.91;4354083;32;20069;-74
2022/03/17 06:28:14;;;;;;;70.00;34.13;;;;;;;1.65;100.00;100468.97;4355763;32;20065;-74
2022/03/17 06:30:40;;;;;;;66.70;29.30;;;;;;;1.72;100.00;100469.16;4342879;32;20031;-73
2022/03/17 06:33:07;;;;;;;70.05;27.05;;;;;;;1.80;100.00;100470.06;4355037;32;20069;-74
2022/03/17 06:35:35;;;;;;;74.87;32.78;;;;;;;1.73;100.00;100444.28;4355030;32;20044;-74
2022/03/17 06:38:04;;;;;;;72.75;32.65;;;;;;;1.61;100.00;100415.34;4349800;32;20054;-74
2022/03/17 06:40:31;;;;;;;75.07;34.38;;;;;;;2.08;100.00;100475.16;4353927;32;20204;-73
2022/03/17 06:42:57;;;;;;;65.28;30.42;;;;;;;2.01;100.00;100471.50;4368038;32;20043;-75
2022/03/17 06:45:25;;;;;;;79.25;37.42;;;;;;;2.17;100.00;100476.88;4358228;32;20032;-73
2022/03/17 06:47:52;;;;;;;73.00;32.08;;;;;;;2.29;100.00;100487.22;4353369;32;20083;-73
2022/03/17 06:50:21;;;;;;;67.72;32.33;;;;;;;2.40;100.00;100489.59;4334550;33;20062;-73
2022/03/17 06:52:48;;;;;;;66.80;27.40;;;;;;;2.46;100.00;100483.63;4345762;32;20091;-74
2022/03/17 06:55:15;;;;;;;65.93;30.83;;;;;;;2.32;100.00;100449.69;4354966;33;20044;-73
2022/03/17 06:57:42;;;;;;;81.65;39.75;;;;;;;2.62;100.00;100482.03;4354066;33;20083;-73
2022/03/17 07:00:12;;;;;;;72.05;28.92;;;;;;;2.43;100.00;100441.41;4350543;33;20369;-73
2022/03/17 07:02:39;;;;;;;66.82;31.37;;;;;;;2.91;100.00;100493.03;4352544;33;20070;-72
2022/03/17 07:05:06;;;;;;;57.97;24.42;;;;;;;2.84;100.00;100470.75;4337756;33;20381;-73
2022/03/17 07:07:33;;;;;;;60.42;26.62;;;;;;;3.07;100.00;100481.59;4352684;33;20069;-73
2022/03/17 07:09:59;;;;;;;68.37;30.42;;;;;;;3.18;100.00;100491.09;4351661;33;20446;-73
2022/03/17 07:12:27;;;;;;;57.55;23.85;;;;;;;3.36;100.00;100490.09;4349043;33;20951;-73
2022/03/17 07:14:54;;;;;;;64.03;25.20;;;;;;;3.48;100.00;100487.91;4354240;32;20386;-72
2022/03/17 07:17:22;;;;;;;56.20;27.52;;;;;;;3.58;100.00;100489.41;4359443;32;20090;-73
2022/03/17 07:22:26;;;;;;;59.28;27.45;;;;;;;3.22;100.00;100404.59;4366324;32;20065;-73
2022/03/17 07:24:53;;;;;;;59.13;26.02;;;;;;;3.79;100.00;100475.53;4354858;32;20869;-74
2022/03/17 07:27:23;;;;;;;51.65;26.08;;;;;;;4.11;100.00;100510.28;4351700;32;20066;-73
2022/03/17 07:29:51;;;;;;;48.80;20.75;;;;;;;3.86;100.00;100462.41;4354886;32;20065;-74
2022/03/17 07:32:22;;;;;;;52.67;25.65;;;;;;;4.22;100.00;100512.59;4356315;32;20065;-73
2022/03/17 07:34:49;;;;;;;52.92;24.90;;;;;;;4.31;100.00;100506.22;4348147;33;20063;-73
2022/03/17 07:37:17;;;;;;;53.55;21.90;;;;;;;4.45;100.00;100522.50;4355271;32;20092;-72
2022/03/17 07:39:44;;;;;;;42.53;21.45;;;;;;;4.51;100.00;100521.81;4356428;32;20085;-72
2022/03/17 07:42:10;;;;;;;46.10;23.30;;;;;;;4.32;100.00;100467.91;4363330;32;20081;-74
2022/03/17 07:44:44;;;;;;;46.40;22.05;;;;;;;4.70;100.00;100521.38;4362226;32;20067;-70
2022/03/17 07:47:11;;;;;;;49.50;21.95;;;;;;;4.73;100.00;100515.69;4361794;32;20400;-73
2022/03/17 07:49:38;;;;;;;47.90;22.50;;;;;;;4.88;100.00;100526.47;4354606;32;20054;-73
2022/03/17 07:52:06;;;;;;;51.25;21.85;;;;;;;5.00;100.00;100532.22;4363198;32;20043;-73
2022/03/17 07:54:33;;;;;;;39.25;21.10;;;;;;;5.02;100.00;100545.41;4355168;32;20039;-73
2022/03/17 07:57:03;;;;;;;46.33;22.13;;;;;;;4.76;100.00;100473.69;4354321;32;20053;-72
2022/03/17 07:59:30;;;;;;;50.40;21.23;;;;;;;5.16;100.00;100547.31;4361286;32;20142;-73
2022/03/17 08:02:04;;;;;;;44.63;23.08;;;;;;;4.98;100.00;100512.91;4359522;32;20047;-72
2022/03/17 08:04:32;;;;;;;46.28;20.67;;;;;;;5.32;100.00;100556.22;4340806;33;20028;-74
2022/03/17 08:07:04;;;;;;;51.10;19.33;;;;;;;5.21;100.00;100560.13;4359319;32;20105;-72
2022/03/17 08:09:31;;;;;;;50.03;20.42;;;;;;;5.19;100.00;100562.16;4355732;32;20069;-73
2022/03/17 08:12:05;;;;;;;41.17;19.35;;;;;;;5.18;100.00;100544.47;4369736;32;20121;-73
2022/03/17 08:14:32;;;;;;;39.33;19.67;;;;;;;5.39;100.00;100567.84;4350809;32;20060;-72
2022/03/17 08:16:58;;;;;;;42.70;19.02;;;;;;;5.31;100.00;100534.00;4356752;32;20065;-73
2022/03/17 08:19:25;;;;;;;40.88;21.95;;;;;;;5.31;100.00;100518.00;4351789;32;20031;-73
2022/03/17 08:21:52;;;;;;;46.33;20.35;;;;;;;5.39;100.00;100568.72;4371716;32;20464;-74
2022/03/17 08:24:19;;;;;;;45.15;20.67;;;;;;;5.48;100.00;100560.62;4369112;32;20035;-73
2022/03/17 08:26:45;;;;;;;44.25;20.17;;;;;;;5.34;100.00;100559.56;4367265;32;20856;-72
2022/03/17 08:29:12;;;;;;;36.20;18.23;;;;;;;5.08;100.00;100529.50;4344452;33;20065;-72
2022/03/17 08:31:39;;;;;;;46.75;20.02;;;;;;;5.59;100.00;100585.06;4354645;32;20065;-73
2022/03/17 08:34:05;;;;;;;38.35;18.15;;;;;;;5.46;100.00;100532.25;4358587;32;20350;-73
2022/03/17 08:36:33;;;;;;;51.00;23.48;;;;;;;5.73;100.00;100564.75;4349681;32;20236;-74
2022/03/17 08:39:00;;;;;;;40.65;20.25;;;;;;;5.41;100.00;100534.63;4342355;33;20081;-73
2022/03/17 08:41:26;;;;;;;46.63;21.60;;;;;;;5.83;100.00;100597.41;4344970;32;20052;-72
2022/03/17 08:43:53;;;;;;;45.33;22.45;;;;;;;5.73;100.00;100563.94;4371058;32;20065;-73
2022/03/17 08:49:18;;;;;;;47.67;22.10;;;;;;;5.76;100.00;100590.28;4348137;32;20039;-73
2022/03/17 08:51:53;;;;;;;40.38;20.02;;;;;;;5.79;100.00;100585.44;4348500;32;20455;-74
2022/03/17 08:54:24;;;;;;;38.97;19.85;;;;;;;5.41;100.00;100547.97;4345989;32;20221;-73
2022/03/17 08:56:59;;;;;;;40.20;19.60;;;;;;;5.73;100.00;100586.13;4346182;32;20036;-73
2022/03/17 08:59:34;;;;;;;45.83;22.17;;;;;;;5.55;100.00;100534.84;4346136;32;20043;-73
2022/03/17 09:02:03;;;;;;;39.00;19.30;;;;;;;5.57;100.00;100548.87;4352420;32;20180;-73
2022/03/17 09:04:30;;;;;;;36.03;20.48;;;;;;;5.93;100.00;100582.97;4359425;32;20475;-73
2022/03/17 09:06:59;;;;;;;39.25;19.20;;;;;;;5.98;100.00;100561.88;4363803;32;20043;-73
2022/03/17 09:09:31;;;;;;;33.92;17.27;;;;;;;6.27;100.00;100587.00;4355373;32;20052;-75
2022/03/17 09:12:08;;;;;;;37.03;18.40;;;;;;;5.83;100.00;100546.59;4369511;32;20486;-73
2022/03/17 09:14:41;;;;;;;30.02;16.48;;;;;;;6.21;100.00;100590.41;4370037;32;20412;-73
2022/03/17 09:17:08;;;;;;;41.53;18.80;;;;;;;6.42;100.00;100590.53;4365247;32;20446;-73
2022/03/17 09:19:34;;;;;;;31.90;16.37;;;;;;;6.20;100.00;100553.97;4356038;32;20426;-73
2022/03/17 09:22:00;;;;;;;28.48;16.52;;;;;;;6.61;100.00;100594.50;4347644;32;20036;-73
2022/03/17 09:24:30;;;;;;;35.65;16.25;;;;;;;5.90;100.00;100511.13;4368392;32;20039;-74
2022/03/17 09:26:58;;;;;;;31.27;14.98;;;;;;;6.44;100.00;100545.66;4367909;32;20168;-74
2022/03/17 09:29:28;;;;;;;36.47;17.87;;;;;;;6.61;100.00;100594.50;4361186;32;20096;-73
2022/03/17 09:31:58;;;;;;;33.25;18.35;;;;;;;6.85;100.00;100590.69;4366897;32;20090;-72
2022/03/17 09:34:24;;;;;;;25.58;11.07;;;;;;;6.90;100.00;100590.94;4369263;32;20483;-74
2022/03/17 09:36:51;;;;;;;27.67;14.93;;;;;;;7.00;100.00;100579.09;4345610;32;20028;-74
2022/03/17 09:42:03;;;;;;;26.12;12.45;;;;;;;7.02;100.00;100579.75;4349409;32;20052;-73
2022/03/17 09:44:30;;;;;;;26.48;14.32;;;;;;;7.07;97.08;100585.38;4338692;33;20039;-73
2022/03/17 09:46:59;;;;;;;33.25;15.20;;;;;;;6.99;95.68;100590.81;4339491;33;20036;-73
2022/03/17 09:49:26;;;;;;;23.12;12.27;;;;;;;6.81;95.25;100551.94;4339596;33;20040;-74
2022/03/17 09:51:55;;;;;;;39.15;17.05;;;;;;;7.12;87.58;100601.72;4354085;32;20039;-72
2022/03/17 09:54:22;;;;;;;29.37;14.35;;;;;;;6.66;89.99;100543.91;4342264;32;20178;-73
2022/03/17 09:56:49;;;;;;;29.45;14.70;;;;;;;6.66;92.81;100551.12;4341321;33;20408;-74
2022/03/17 09:59:16;;;;;;;29.50;12.10;;;;;;;7.04;88.96;100593.78;4341007;33;20050;-76
2022/03/17 10:01:44;;;;;;;19.65;10.75;;;;;;;7.02;85.07;100585.94;4336466;33;20040;-73
2022/03/17 10:04:12;;;;;;;22.65;12.68;;;;;;;7.22;83.60;100586.16;4336156;33;20052;-73
2022/03/17 10:06:39;;;;;;;27.85;12.77;;;;;;;6.40;84.46;100528.34;4338647;33;20032;-73
2022/03/17 10:09:05;;;;;;;25.48;12.35;;;;;;;7.00;85.87;100561.19;4340777;33;20088;-74
2022/03/17 10:11:39;;;;;;;18.45;10.90;;;;;;;7.49;84.22;100578.41;4339267;33;20040;-75
2022/03/17 10:14:06;;;;;;;22.40;11.52;;;;;;;7.23;83.16;100581.66;4342270;33;20052;-73
2022/03/17 10:16:37;;;;;;;30.15;14.68;;;;;;;7.04;86.17;100593.78;4350741;32;20065;-72
2022/03/17 10:19:06;;;;;;;28.25;13.32;;;;;;;6.97;88.12;100558.06;4354019;32;20054;-73
2022/03/17 10:21:33;;;;;;;24.52;13.45;;;;;;;7.36;90.36;100554.16;4349841;33;20098;-77
2022/03/17 10:24:02;;;;;;;26.55;13.27;;;;;;;7.66;86.16;100599.56;4351799;32;20073;-75
2022/03/17 10:26:44;;;;;;;21.77;13.07;;;;;;;7.52;83.72;100574.53;4336659;33;20070;-74
2022/03/17 10:29:18;;;;;;;;;;;;;;;7.23;82.49;100560.22;4324932;33;20362;-74
2022/03/17 10:31:54;;;;;;;23.05;12.23;;;;;;;7.76;84.11;100602.78;4327348;33;20335;-73
2022/03/17 10:34:26;;;;;;;22.87;11.07;;;;;;;8.03;80.43;100608.38;4334251;33;20152;-73
2022/03/17 10:37:07;;;;;;;20.98;10.73;;;;;;;7.94;76.63;100597.75;4338466;33;20414;-73
2022/03/17 10:39:45;;;;;;;17.08;9.32;;;;;;;7.88;73.67;100601.25;4338880;33;20324;-73
2022/03/17 10:42:12;;;;;;;27.90;13.68;;;;;;;7.93;74.69;100544.31;4326747;33;20414;-73
2022/03/17 10:44:41;;;;;;;24.70;13.43;;;;;;;7.71;73.65;100551.59;4340044;33;20111;-73
2022/03/17 10:47:09;;;;;;;16.67;9.00;;;;;;;7.57;73.85;100556.00;4337994;33;20065;-73
2022/03/17 10:49:36;;;;;;;23.25;12.15;;;;;;;7.98;75.52;100580.28;4326934;33;20043;-73
2022/03/17 10:52:04;;;;;;;23.40;12.82;;;;;;;7.86;77.46;100544.28;4323116;33;20040;-74
2022/03/17 10:54:32;;;;;;;24.02;12.32;;;;;;;7.99;74.10;100544.38;4322020;33;20041;-73
2022/03/17 10:57:08;;;;;;;23.30;13.38;;;;;;;7.86;78.42;100548.81;4329676;33;20159;-73
2022/03/17 10:59:39;;;;;;;22.02;12.65;;;;;;;8.26;75.14;100598.19;4336988;33;20580;-73
2022/03/17 11:02:14;;;;;;;23.00;11.10;;;;;;;8.34;77.92;100573.94;4334345;33;20371;-73
2022/03/17 11:04:44;;;;;;;23.38;11.35;;;;;;;7.73;73.93;100498.59;4338879;33;20058;-76
2022/03/17 11:07:15;;;;;;;29.23;13.15;;;;;;;8.36;76.95;100587.16;4324064;33;20036;-73
2022/03/17 11:09:43;;;;;;;29.35;12.57;;;;;;;8.30;74.89;100545.00;4338029;33;20094;-73
2022/03/17 11:12:12;;;;;;;18.23;11.48;;;;;;;8.80;73.32;100582.44;4325801;33;20418;-73
2022/03/17 11:14:50;;;;;;;30.70;12.60;;;;;;;8.82;70.57;100600.03;4325279;33;20045;-73
2022/03/17 11:17:29;;;;;;;26.02;11.18;;;;;;;8.49;72.29;100583.75;4338568;33;20304;-73
2022/03/17 11:20:03;;;;;;;23.60;13.25;;;;;;;8.68;70.75;100591.06;4338128;33;20400;-74
2022/03/17 11:22:32;;;;;;;23.23;11.70;;;;;;;8.60;70.86;100583.19;4338082;33;20346;-76
2022/03/17 11:25:20;;;;;;;27.08;14.00;;;;;;;8.44;68.45;100508.31;4338057;33;20036;-74
2022/03/17 11:27:48;;;;;;;25.37;11.82;;;;;;;8.78;68.39;100593.37;4338597;33;20054;-74
2022/03/17 11:30:16;;;;;;;23.30;12.30;;;;;;;8.91;67.22;100530.81;4338246;33;20066;-74
2022/03/17 11:32:55;;;;;;;18.98;9.90;;;;;;;9.58;63.69;100582.03;4325480;33;20037;-74
2022/03/17 11:35:28;;;;;;;30.85;12.52;;;;;;;8.98;65.25;100534.34;4338942;33;20048;-73
2022/03/17 11:38:18;;;;;;;17.50;10.57;;;;;;;9.84;64.49;100580.41;4342205;33;20036;-73
2022/03/17 11:41:03;;;;;;;22.40;12.40;;;;;;;10.57;61.56;100582.22;4340803;33;20048;-73
2022/03/17 11:43:45;;;;;;;16.08;10.00;;;;;;;9.97;58.15;100577.69;4341562;33;20081;-73
2022/03/17 11:46:37;;;;;;;20.95;11.05;;;;;;;10.17;60.63;100583.91;4341277;33;20099;-72
2022/03/17 11:49:26;;;;;;;21.37;11.98;;;;;;;10.16;56.97;100576.03;4335875;33;20292;-73